sensor_id;sensor_type;location;lat;lon;timestamp;temperature;humidity
57466;DHT22;67033;44.984;20.068;2023-02-15T07:56:07;4.80;99.90
57466;DHT22;67033;44.984;20.068;2023-02-15T08:16:26;7.50;99.90
57466;DHT22;67033;44.984;20.068;2023-02-15T08:21:20;8.00;99.90
57466;DHT22;67033;44.984;20.068;2023-02-15T08:40:56;8.50;99.90
57466;DHT22;67033;44.984;20.068;2023-02-15T09:27:16;9.10;99.90
57466;DHT22;67033;44.984;20.068;2023-02-15T09:29:42;11.30;85.70
57466;DHT22;67033;44.984;20.068;2023-02-15T09:32:08;11.20;82.80
57466;DHT22;67033;44.984;20.068;2023-02-15T09:34:34;11.10;83.00
57466;DHT22;67033;44.984;20.068;2023-02-15T09:37:00;11.00;82.10
57466;DHT22;67033;44.984;20.068;2023-02-15T09:39:26;10.80;81.70
57466;DHT22;67033;44.984;20.068;2023-02-15T09:45:26;10.70;80.70
57466;DHT22;67033;44.984;20.068;2023-02-15T09:48:44;11.00;80.60
57466;DHT22;67033;44.984;20.068;2023-02-15T09:51:03;11.40;92.40
57466;DHT22;67033;44.984;20.068;2023-02-15T10:18:33;11.70;78.40
57466;DHT22;67033;44.984;20.068;2023-02-15T10:24:05;11.70;77.20
57466;DHT22;67033;44.984;20.068;2023-02-15T10:26:43;11.70;77.70
57466;DHT22;67033;44.984;20.068;2023-02-15T10:29:15;11.80;78.50
57466;DHT22;67033;44.984;20.068;2023-02-15T10:31:50;12.00;78.00
57466;DHT22;67033;44.984;20.068;2023-02-15T10:34:22;12.30;78.50
57466;DHT22;67033;44.984;20.068;2023-02-15T10:37:04;12.30;76.00
57466;DHT22;67033;44.984;20.068;2023-02-15T10:51:04;12.00;76.40
57466;DHT22;67033;44.984;20.068;2023-02-15T10:58:50;12.10;75.70
57466;DHT22;67033;44.984;20.068;2023-02-15T11:01:36;12.10;74.70
57466;DHT22;67033;44.984;20.068;2023-02-15T11:07:04;12.20;74.30
57466;DHT22;67033;44.984;20.068;2023-02-15T11:09:45;12.10;73.90
57466;DHT22;67033;44.984;20.068;2023-02-15T11:12:18;12.00;74.70
57466;DHT22;67033;44.984;20.068;2023-02-15T11:14:55;12.10;74.30
57466;DHT22;67033;44.984;20.068;2023-02-15T11:17:36;12.00;72.50
57466;DHT22;67033;44.984;20.068;2023-02-15T11:20:25;11.90;75.50
57466;DHT22;67033;44.984;20.068;2023-02-15T11:22:52;12.00;74.80
57466;DHT22;67033;44.984;20.068;2023-02-15T11:25:31;12.00;77.10
57466;DHT22;67033;44.984;20.068;2023-02-15T11:27:58;12.00;75.10
57466;DHT22;67033;44.984;20.068;2023-02-15T11:30:29;11.90;75.40
57466;DHT22;67033;44.984;20.068;2023-02-15T11:33:01;11.80;77.00
57466;DHT22;67033;44.984;20.068;2023-02-15T11:35:34;11.50;75.90
57466;DHT22;67033;44.984;20.068;2023-02-15T11:43:20;11.60;77.20
57466;DHT22;67033;44.984;20.068;2023-02-15T11:45:49;11.60;78.60
57466;DHT22;67033;44.984;20.068;2023-02-15T11:48:15;11.70;76.70
57466;DHT22;67033;44.984;20.068;2023-02-15T11:50:42;11.70;77.00
57466;DHT22;67033;44.984;20.068;2023-02-15T11:55:39;11.70;76.80
57466;DHT22;67033;44.984;20.068;2023-02-15T12:01:18;11.50;75.00
57466;DHT22;67033;44.984;20.068;2023-02-15T12:03:48;11.50;76.90
57466;DHT22;67033;44.984;20.068;2023-02-15T12:06:28;11.40;75.30
57466;DHT22;67033;44.984;20.068;2023-02-15T12:09:10;11.30;75.10
57466;DHT22;67033;44.984;20.068;2023-02-15T12:11:40;11.50;76.30
57466;DHT22;67033;44.984;20.068;2023-02-15T12:14:09;11.50;75.80
57466;DHT22;67033;44.984;20.068;2023-02-15T12:16:48;11.50;75.30
57466;DHT22;67033;44.984;20.068;2023-02-15T12:19:38;11.60;75.70
57466;DHT22;67033;44.984;20.068;2023-02-15T12:22:30;11.50;75.20
57466;DHT22;67033;44.984;20.068;2023-02-15T12:25:00;11.60;78.10
57466;DHT22;67033;44.984;20.068;2023-02-15T12:27:27;11.40;77.70
57466;DHT22;67033;44.984;20.068;2023-02-15T12:30:00;11.40;77.20
57466;DHT22;67033;44.984;20.068;2023-02-15T12:32:35;11.70;78.90
57466;DHT22;67033;44.984;20.068;2023-02-15T12:35:21;11.70;78.50
57466;DHT22;67033;44.984;20.068;2023-02-15T12:37:57;11.80;78.70
57466;DHT22;67033;44.984;20.068;2023-02-15T12:40:30;11.60;75.50
57466;DHT22;67033;44.984;20.068;2023-02-15T12:42:56;11.70;77.50
57466;DHT22;67033;44.984;20.068;2023-02-15T12:45:26;11.80;77.90
57466;DHT22;67033;44.984;20.068;2023-02-15T12:48:21;11.70;76.90
57466;DHT22;67033;44.984;20.068;2023-02-15T12:50:49;11.50;76.00
57466;DHT22;67033;44.984;20.068;2023-02-15T12:53:21;11.60;77.60
57466;DHT22;67033;44.984;20.068;2023-02-15T12:55:58;11.30;76.50
57466;DHT22;67033;44.984;20.068;2023-02-15T12:58:26;11.40;78.70
57466;DHT22;67033;44.984;20.068;2023-02-15T13:01:12;11.70;79.20
57466;DHT22;67033;44.984;20.068;2023-02-15T13:04:05;11.60;76.40
57466;DHT22;67033;44.984;20.068;2023-02-15T13:06:34;11.70;76.40
57466;DHT22;67033;44.984;20.068;2023-02-15T13:09:20;12.00;78.10
57466;DHT22;67033;44.984;20.068;2023-02-15T13:11:46;11.90;78.10
57466;DHT22;67033;44.984;20.068;2023-02-15T13:14:24;12.00;77.90
57466;DHT22;67033;44.984;20.068;2023-02-15T13:16:53;12.20;78.20
57466;DHT22;67033;44.984;20.068;2023-02-15T13:21:51;12.30;77.40
57466;DHT22;67033;44.984;20.068;2023-02-15T13:24:29;12.40;77.70
57466;DHT22;67033;44.984;20.068;2023-02-15T13:26:58;12.40;75.30
57466;DHT22;67033;44.984;20.068;2023-02-15T13:29:33;12.20;74.90
57466;DHT22;67033;44.984;20.068;2023-02-15T13:32:27;12.30;76.10
57466;DHT22;67033;44.984;20.068;2023-02-15T13:34:56;12.10;74.40
57466;DHT22;67033;44.984;20.068;2023-02-15T13:37:36;12.20;75.60
57466;DHT22;67033;44.984;20.068;2023-02-15T13:40:25;12.10;75.00
57466;DHT22;67033;44.984;20.068;2023-02-15T13:45:55;12.10;76.60
57466;DHT22;67033;44.984;20.068;2023-02-15T13:48:48;11.90;74.80
57466;DHT22;67033;44.984;20.068;2023-02-15T13:51:21;12.20;76.20
57466;DHT22;67033;44.984;20.068;2023-02-15T14:05:12;12.00;75.20
57466;DHT22;67033;44.984;20.068;2023-02-15T14:08:04;12.00;74.70
57466;DHT22;67033;44.984;20.068;2023-02-15T14:19:16;12.00;75.70
57466;DHT22;67033;44.984;20.068;2023-02-15T14:24:52;12.00;76.10
57466;DHT22;67033;44.984;20.068;2023-02-15T14:30:03;12.00;75.10
57466;DHT22;67033;44.984;20.068;2023-02-15T14:32:39;11.80;74.30
57466;DHT22;67033;44.984;20.068;2023-02-15T14:35:18;11.60;75.10
57466;DHT22;67033;44.984;20.068;2023-02-15T14:43:20;11.50;76.40
57466;DHT22;67033;44.984;20.068;2023-02-15T14:45:55;11.50;79.30
57466;DHT22;67033;44.984;20.068;2023-02-15T14:48:46;11.50;77.60
57466;DHT22;67033;44.984;20.068;2023-02-15T14:56:45;11.40;77.60
57466;DHT22;67033;44.984;20.068;2023-02-15T15:01:38;11.40;79.60
57466;DHT22;67033;44.984;20.068;2023-02-15T15:04:13;11.40;78.50
57466;DHT22;67033;44.984;20.068;2023-02-15T15:09:34;11.50;78.30
57466;DHT22;67033;44.984;20.068;2023-02-15T15:14:52;11.30;77.00
57466;DHT22;67033;44.984;20.068;2023-02-15T15:22:42;10.70;78.90
57466;DHT22;67033;44.984;20.068;2023-02-15T15:25:56;10.60;80.10
57466;DHT22;67033;44.984;20.068;2023-02-15T15:27:56;10.60;94.40
57466;DHT22;67033;44.984;20.068;2023-02-15T15:41:48;10.20;81.60
57466;DHT22;67033;44.984;20.068;2023-02-15T15:50:19;10.20;82.60
57466;DHT22;67033;44.984;20.068;2023-02-15T15:52:53;10.20;83.90
57466;DHT22;67033;44.984;20.068;2023-02-15T15:55:22;10.20;86.10
57466;DHT22;67033;44.984;20.068;2023-02-15T15:57:54;10.20;85.60
57466;DHT22;67033;44.984;20.068;2023-02-15T16:03:20;10.10;87.00
57466;DHT22;67033;44.984;20.068;2023-02-15T16:05:46;10.00;86.80
57466;DHT22;67033;44.984;20.068;2023-02-15T16:08:13;9.90;87.80
57466;DHT22;67033;44.984;20.068;2023-02-15T16:10:51;9.90;87.90
57466;DHT22;67033;44.984;20.068;2023-02-15T16:13:16;9.90;89.40
57466;DHT22;67033;44.984;20.068;2023-02-15T16:15:47;9.80;90.00
57466;DHT22;67033;44.984;20.068;2023-02-15T16:18:17;9.70;90.20
57466;DHT22;67033;44.984;20.068;2023-02-15T16:21:02;9.60;90.70
57466;DHT22;67033;44.984;20.068;2023-02-15T16:29:29;9.30;92.50
57466;DHT22;67033;44.984;20.068;2023-02-15T16:32:03;9.20;93.40
57466;DHT22;67033;44.984;20.068;2023-02-15T16:34:29;9.20;94.10
57466;DHT22;67033;44.984;20.068;2023-02-15T16:37:21;9.10;94.90
57466;DHT22;67033;44.984;20.068;2023-02-15T16:39:49;9.10;94.80
57466;DHT22;67033;44.984;20.068;2023-02-15T16:42:16;9.00;96.20
57466;DHT22;67033;44.984;20.068;2023-02-15T16:44:44;8.90;96.90
57466;DHT22;67033;44.984;20.068;2023-02-15T16:47:24;8.90;99.90
57466;DHT22;67033;44.984;20.068;2023-02-15T16:49:53;8.70;96.90
57466;DHT22;67033;44.984;20.068;2023-02-15T16:52:23;8.70;97.00
57466;DHT22;67033;44.984;20.068;2023-02-15T16:55:17;8.80;99.80
57466;DHT22;67033;44.984;20.068;2023-02-15T16:57:44;8.80;99.70
57466;DHT22;67033;44.984;20.068;2023-02-15T17:05:40;8.90;99.60
57466;DHT22;67033;44.984;20.068;2023-02-15T17:08:18;8.40;99.50
57466;DHT22;67033;44.984;20.068;2023-02-15T17:11:09;8.40;99.70
57466;DHT22;67033;44.984;20.068;2023-02-15T17:13:36;8.30;99.90
57466;DHT22;67033;44.984;20.068;2023-02-15T18:16:37;7.00;99.90
57466;DHT22;67033;44.984;20.068;2023-02-15T19:08:21;5.40;99.90
57466;DHT22;67033;44.984;20.068;2023-02-15T19:10:52;5.40;99.90
57466;DHT22;67033;44.984;20.068;2023-02-15T19:15:44;5.20;99.90
57466;DHT22;67033;44.984;20.068;2023-02-15T19:18:10;5.20;99.90
57466;DHT22;67033;44.984;20.068;2023-02-15T19:52:43;5.20;99.90
57466;DHT22;67033;44.984;20.068;2023-02-15T20:30:29;4.30;99.90
57466;DHT22;67033;44.984;20.068;2023-02-15T20:37:52;4.40;99.90
57466;DHT22;67033;44.984;20.068;2023-02-15T20:40:26;4.10;99.90
57466;DHT22;67033;44.984;20.068;2023-02-15T20:45:19;4.10;99.90
57466;DHT22;67033;44.984;20.068;2023-02-15T20:47:46;4.00;99.90
57466;DHT22;67033;44.984;20.068;2023-02-15T20:50:18;3.80;99.90
57466;DHT22;67033;44.984;20.068;2023-02-15T20:52:46;3.70;99.90
57466;DHT22;67033;44.984;20.068;2023-02-15T20:55:17;3.70;99.90
57466;DHT22;67033;44.984;20.068;2023-02-15T20:57:44;3.60;99.90
57466;DHT22;67033;44.984;20.068;2023-02-15T21:00:21;3.60;99.90
57466;DHT22;67033;44.984;20.068;2023-02-15T21:02:50;3.60;99.90
57466;DHT22;67033;44.984;20.068;2023-02-15T21:05:19;3.60;99.90
57466;DHT22;67033;44.984;20.068;2023-02-15T21:07:46;3.60;99.90
57466;DHT22;67033;44.984;20.068;2023-02-15T21:10:17;3.60;99.90
